Time;durP1;ratioP1;P1;durP2;ratioP2;P2;SDS_P1;SDS_P2;PMS_P1;PMS_P2;Temp;Humidity;BMP_temperature;BMP_pressure;BME280_temperature;BME280_humidity;BME280_pressure;Samples;Min_cycle;Max_cycle;Signal;HPM_P1;HPM_P2
2024/02/25 00:00:04;;;;;;;7.00;4.70;;;10.00;96.70;;;;;;5066466;28;20132;-70
2024/02/25 00:02:41;;;;;;;6.07;4.15;;;10.00;96.70;;;;;;5082318;28;20074;-71
2024/02/25 00:05:11;;;;;;;5.72;4.28;;;10.00;96.70;;;;;;5083320;28;20080;-70
2024/02/25 00:07:43;;;;;;;8.05;4.65;;;10.00;96.70;;;;;;5066961;28;20893;-70
2024/02/25 00:10:13;;;;;;;7.13;4.97;;;10.00;96.70;;;;;;5072422;28;20056;-70
2024/02/25 00:12:45;;;;;;;7.78;5.05;;;9.90;96.70;;;;;;5083824;28;20128;-70
2024/02/25 00:15:13;;;;;;;7.15;4.80;;;9.90;96.70;;;;;;5083872;28;20412;-70
2024/02/25 00:17:43;;;;;;;5.00;4.07;;;10.00;96.70;;;;;;5084645;28;20044;-70
2024/02/25 00:20:13;;;;;;;7.00;4.60;;;10.00;96.70;;;;;;5071959;28;20063;-70
2024/02/25 00:22:45;;;;;;;6.43;4.53;;;10.00;96.70;;;;;;5086532;28;20050;-70
2024/02/25 00:25:15;;;;;;;6.60;4.68;;;10.00;96.70;;;;;;5088940;28;20566;-70
2024/02/25 00:27:43;;;;;;;6.03;4.78;;;10.00;96.70;;;;;;5054230;28;20040;-70
2024/02/25 00:30:13;;;;;;;7.80;4.28;;;10.00;96.70;;;;;;5070907;28;20051;-70
2024/02/25 00:32:46;;;;;;;6.43;5.10;;;10.10;96.70;;;;;;5070920;28;20048;-70
2024/02/25 00:35:19;;;;;;;5.43;4.93;;;10.00;96.70;;;;;;5070710;28;20459;-70
2024/02/25 00:37:52;;;;;;;10.45;6.05;;;10.00;96.70;;;;;;5083365;28;20055;-70
2024/02/25 00:40:23;;;;;;;9.70;6.07;;;10.10;96.70;;;;;;5083943;28;20075;-70
2024/02/25 00:42:53;;;;;;;11.05;6.80;;;10.00;96.70;;;;;;5076875;28;20059;-70
2024/02/25 00:45:25;;;;;;;13.95;8.73;;;9.90;96.70;;;;;;5086200;28;20060;-70
2024/02/25 00:47:57;;;;;;;13.00;8.40;;;9.80;96.70;;;;;;5071171;28;20052;-70
2024/02/25 00:50:27;;;;;;;12.55;7.25;;;9.70;96.70;;;;;;5061581;28;20048;-70
2024/02/25 00:53:01;;;;;;;11.60;7.10;;;9.70;96.70;;;;;;5069119;28;20040;-70
2024/02/25 00:55:30;;;;;;;9.95;6.75;;;9.70;96.70;;;;;;5070248;28;20052;-70
2024/02/25 00:57:58;;;;;;;9.63;6.68;;;9.60;96.70;;;;;;5086591;28;20043;-70
2024/02/25 01:00:27;;;;;;;10.85;6.20;;;9.50;96.70;;;;;;5053623;28;20063;-70
2024/02/25 01:02:56;;;;;;;11.60;6.70;;;9.50;96.70;;;;;;5062279;28;20158;-70
2024/02/25 01:05:25;;;;;;;9.18;6.00;;;9.50;96.70;;;;;;5086505;28;20044;-70
2024/02/25 01:07:55;;;;;;;9.32;6.20;;;9.40;96.70;;;;;;5086970;28;20044;-70
2024/02/25 01:10:26;;;;;;;8.05;5.90;;;9.40;96.70;;;;;;5066091;28;20429;-70
2024/02/25 01:12:55;;;;;;;8.63;5.70;;;9.40;96.70;;;;;;5049554;28;20075;-70
2024/02/25 01:15:25;;;;;;;9.18;6.03;;;9.40;96.70;;;;;;5062063;28;20051;-70
2024/02/25 01:17:54;;;;;;;7.80;5.97;;;9.40;96.70;;;;;;5069584;28;20551;-70
2024/02/25 01:20:23;;;;;;;8.45;5.32;;;9.40;96.70;;;;;;5086123;28;20052;-70
2024/02/25 01:22:52;;;;;;;8.70;5.55;;;9.40;96.70;;;;;;5079727;28;20064;-70
2024/02/25 01:25:20;;;;;;;9.18;5.57;;;9.40;96.70;;;;;;5052698;28;20523;-70
2024/02/25 01:27:51;;;;;;;8.80;5.72;;;9.40;96.70;;;;;;5069040;28;20056;-70
2024/02/25 01:30:21;;;;;;;6.88;5.38;;;9.40;96.70;;;;;;5086485;28;20052;-70
2024/02/25 01:32:51;;;;;;;8.65;5.50;;;9.40;96.70;;;;;;5068814;28;20617;-70
2024/02/25 01:35:20;;;;;;;6.93;5.40;;;9.30;96.70;;;;;;5085314;28;20040;-70
2024/02/25 01:37:48;;;;;;;8.10;5.22;;;9.30;96.70;;;;;;5060148;28;20052;-70
2024/02/25 01:40:17;;;;;;;7.47;5.20;;;9.30;96.70;;;;;;5085821;28;20048;-71
2024/02/25 01:42:46;;;;;;;7.97;5.68;;;9.30;96.70;;;;;;5068518;28;20040;-71
2024/02/25 01:45:19;;;;;;;6.57;5.13;;;9.30;96.70;;;;;;5064376;28;20044;-71
2024/02/25 01:47:49;;;;;;;8.73;5.60;;;9.30;96.70;;;;;;5085592;28;20056;-70
2024/02/25 01:50:20;;;;;;;7.07;5.50;;;9.30;96.70;;;;;;5068427;28;20055;-70
2024/02/25 01:52:53;;;;;;;6.30;4.72;;;9.30;96.70;;;;;;5060580;28;20509;-70
2024/02/25 01:55:25;;;;;;;7.05;4.60;;;9.40;96.70;;;;;;5090817;28;20044;-70
2024/02/25 01:57:54;;;;;;;6.05;4.60;;;9.40;96.70;;;;;;5069187;28;20059;-70
2024/02/25 02:00:27;;;;;;;7.70;5.32;;;9.40;96.70;;;;;;5084504;28;20403;-70
2024/02/25 02:02:58;;;;;;;7.22;4.65;;;9.40;96.70;;;;;;5069050;28;20073;-70
2024/02/25 02:05:29;;;;;;;15.52;8.65;;;9.20;96.70;;;;;;5084702;28;20664;-70
2024/02/25 02:07:59;;;;;;;8.93;6.38;;;9.30;96.70;;;;;;5085543;28;20117;-70
2024/02/25 02:10:28;;;;;;;9.80;6.05;;;9.30;96.70;;;;;;5082261;28;20052;-70
2024/02/25 02:13:01;;;;;;;5.90;4.10;;;9.20;96.70;;;;;;5062469;28;20070;-70
2024/02/25 02:15:34;;;;;;;5.85;4.88;;;9.20;96.70;;;;;;5052273;28;20052;-70
2024/02/25 02:18:03;;;;;;;6.65;4.55;;;9.20;96.70;;;;;;5083666;28;20052;-70
2024/02/25 02:20:33;;;;;;;7.63;4.35;;;9.30;96.70;;;;;;5066266;28;20056;-70
2024/02/25 02:23:04;;;;;;;5.57;4.55;;;9.20;96.70;;;;;;5072100;28;20542;-70
2024/02/25 02:25:34;;;;;;;6.35;4.32;;;9.20;96.70;;;;;;5067904;28;20051;-70
2024/02/25 02:28:04;;;;;;;8.63;5.45;;;9.20;96.70;;;;;;5084815;28;20051;-70
2024/02/25 02:30:33;;;;;;;7.55;5.78;;;9.10;96.70;;;;;;5060470;28;20070;-70
2024/02/25 02:33:05;;;;;;;8.63;5.28;;;9.10;96.70;;;;;;5068100;28;20050;-70
2024/02/25 02:35:34;;;;;;;8.73;6.00;;;9.10;96.70;;;;;;5067818;28;20409;-70
2024/02/25 02:38:11;;;;;;;7.88;5.30;;;9.20;96.70;;;;;;5085956;28;20689;-70
2024/02/25 02:40:42;;;;;;;9.43;5.90;;;9.20;96.70;;;;;;5084411;28;20056;-70
2024/02/25 02:43:10;;;;;;;10.55;6.55;;;9.20;96.70;;;;;;5068385;28;20040;-70
2024/02/25 02:45:40;;;;;;;9.32;6.10;;;9.20;96.70;;;;;;5068074;28;20044;-70
2024/02/25 02:48:13;;;;;;;9.15;5.72;;;9.30;96.70;;;;;;5084067;28;20138;-70
2024/02/25 02:50:44;;;;;;;7.00;4.57;;;9.00;96.70;;;;;;5067512;28;20058;-71
2024/02/25 02:53:18;;;;;;;4.80;4.30;;;8.60;96.70;;;;;;5076827;28;20052;-70
2024/02/25 02:55:49;;;;;;;7.97;4.88;;;8.40;96.70;;;;;;5081246;28;20060;-70
2024/02/25 02:58:20;;;;;;;7.18;5.10;;;8.40;96.70;;;;;;5081380;28;20094;-71
2024/02/25 03:00:49;;;;;;;5.45;4.68;;;8.40;96.70;;;;;;5056217;28;20055;-71
2024/02/25 03:03:19;;;;;;;9.23;5.70;;;8.40;96.70;;;;;;5064313;28;20055;-71
2024/02/25 03:05:49;;;;;;;7.90;5.45;;;8.40;96.70;;;;;;5080770;28;20447;-71
2024/02/25 03:08:22;;;;;;;9.32;6.10;;;8.40;96.70;;;;;;5064151;28;20102;-71
2024/02/25 03:10:51;;;;;;;9.82;7.18;;;8.40;96.70;;;;;;5063984;28;20062;-70
2024/02/25 03:13:22;;;;;;;7.72;6.25;;;8.40;96.70;;;;;;5065563;28;20143;-71
2024/02/25 03:15:50;;;;;;;6.90;5.63;;;8.50;96.70;;;;;;5064781;28;20048;-71
2024/02/25 03:18:19;;;;;;;6.95;5.63;;;8.70;96.70;;;;;;5065272;28;20052;-71
2024/02/25 03:20:49;;;;;;;7.30;6.15;;;8.80;96.70;;;;;;5064146;28;20060;-71
2024/02/25 03:23:21;;;;;;;7.57;5.55;;;9.00;96.70;;;;;;5063797;28;20045;-70
2024/02/25 03:25:51;;;;;;;6.47;5.60;;;9.00;96.70;;;;;;5063867;28;20045;-71
2024/02/25 03:28:20;;;;;;;6.63;5.70;;;9.10;96.70;;;;;;5060222;28;20100;-71
2024/02/25 03:30:50;;;;;;;6.55;5.57;;;9.20;96.70;;;;;;5064157;28;20052;-71
2024/02/25 03:33:19;;;;;;;7.30;5.18;;;9.30;96.70;;;;;;5048035;28;20052;-71
2024/02/25 03:35:48;;;;;;;5.60;5.00;;;9.30;96.70;;;;;;5097286;28;20393;-70
2024/02/25 03:38:17;;;;;;;7.35;6.18;;;9.30;96.70;;;;;;5065183;28;20520;-70
2024/02/25 03:40:48;;;;;;;5.93;5.32;;;9.40;96.70;;;;;;5064062;28;20816;-71
2024/02/25 03:43:18;;;;;;;6.57;4.80;;;9.40;96.70;;;;;;5067309;28;20049;-71
2024/02/25 03:45:49;;;;;;;7.03;5.18;;;9.40;96.70;;;;;;5063613;28;20412;-70
2024/02/25 03:48:17;;;;;;;5.65;5.05;;;9.40;96.70;;;;;;5047898;28;20059;-71
2024/02/25 03:50:48;;;;;;;5.40;4.40;;;9.40;96.70;;;;;;5063984;28;20052;-71
2024/02/25 03:53:18;;;;;;;6.70;5.80;;;9.40;96.70;;;;;;5076205;28;20060;-70
2024/02/25 03:55:49;;;;;;;7.10;5.03;;;9.50;96.70;;;;;;5067902;28;20036;-71
2024/02/25 03:58:18;;;;;;;6.25;5.38;;;9.50;96.70;;;;;;5052671;28;20070;-70
2024/02/25 04:00:47;;;;;;;6.90;5.32;;;9.50;96.70;;;;;;5083507;28;20469;-70
2024/02/25 04:03:17;;;;;;;7.00;5.38;;;9.50;96.70;;;;;;5084307;28;20048;-71
2024/02/25 04:05:49;;;;;;;7.28;5.50;;;9.50;96.70;;;;;;5084332;28;20052;-71
2024/02/25 04:08:18;;;;;;;8.57;5.78;;;9.60;96.70;;;;;;5084137;28;20143;-70
2024/02/25 04:10:50;;;;;;;6.95;5.60;;;9.50;96.70;;;;;;5069519;28;20044;-70
2024/02/25 04:13:20;;;;;;;7.13;6.10;;;9.50;96.70;;;;;;5084151;28;20476;-70
2024/02/25 04:15:50;;;;;;;7.18;6.10;;;9.50;96.70;;;;;;5073206;28;20044;-70
2024/02/25 04:18:20;;;;;;;9.85;6.63;;;9.40;96.70;;;;;;5051064;28;20049;-70
2024/02/25 04:20:51;;;;;;;7.78;6.38;;;9.50;96.70;;;;;;5083732;28;20051;-70
2024/02/25 04:23:21;;;;;;;7.10;5.93;;;9.50;96.70;;;;;;5050346;28;20079;-71
2024/02/25 04:25:51;;;;;;;7.40;6.38;;;9.50;96.70;;;;;;5068323;28;20678;-70
2024/02/25 04:28:23;;;;;;;9.70;6.43;;;9.50;96.70;;;;;;5067819;28;20125;-70
2024/02/25 04:30:51;;;;;;;6.82;5.55;;;9.50;96.70;;;;;;5083560;28;20562;-70
2024/02/25 04:33:20;;;;;;;8.15;5.80;;;9.50;96.70;;;;;;5083891;28;20407;-70
2024/02/25 04:35:51;;;;;;;7.25;6.00;;;9.50;96.70;;;;;;5099878;28;20042;-70
2024/02/25 04:38:21;;;;;;;7.43;5.90;;;9.50;96.70;;;;;;5069122;28;20051;-70
2024/02/25 04:40:53;;;;;;;7.50;6.03;;;9.50;96.70;;;;;;5067298;28;20059;-70
2024/02/25 04:43:22;;;;;;;6.50;5.50;;;9.50;96.70;;;;;;5067448;28;20052;-70
2024/02/25 04:45:52;;;;;;;7.10;5.95;;;9.50;96.70;;;;;;5065032;28;20040;-70
2024/02/25 04:48:24;;;;;;;7.82;6.55;;;9.50;96.70;;;;;;5067766;28;20489;-71
2024/02/25 04:50:56;;;;;;;8.73;6.80;;;9.50;96.70;;;;;;5066317;28;20540;-70
2024/02/25 04:53:25;;;;;;;8.52;6.45;;;9.40;96.70;;;;;;5083197;28;20057;-70
2024/02/25 04:55:56;;;;;;;7.45;6.57;;;9.40;96.70;;;;;;5066588;28;20101;-70
2024/02/25 04:58:26;;;;;;;7.85;6.00;;;9.40;96.70;;;;;;5050060;28;20048;-70
2024/02/25 05:00:55;;;;;;;7.60;6.80;;;9.30;96.70;;;;;;5082586;28;20044;-70
2024/02/25 05:03:25;;;;;;;7.93;6.75;;;9.40;96.70;;;;;;5082567;28;20063;-71
2024/02/25 05:05:54;;;;;;;10.35;7.50;;;9.30;96.70;;;;;;5066369;28;20063;-71
2024/02/25 05:08:25;;;;;;;7.25;6.35;;;9.30;96.70;;;;;;5065869;28;20040;-70
2024/02/25 05:10:58;;;;;;;10.23;7.18;;;9.30;96.70;;;;;;5051113;28;20056;-70
2024/02/25 05:13:29;;;;;;;10.55;6.68;;;9.30;96.70;;;;;;5082402;28;21389;-70
2024/02/25 05:16:00;;;;;;;8.95;7.00;;;9.30;96.70;;;;;;5066586;28;20036;-70
2024/02/25 05:18:31;;;;;;;7.95;6.43;;;9.30;96.70;;;;;;5050475;28;20065;-70
2024/02/25 05:21:05;;;;;;;9.60;7.07;;;9.30;96.70;;;;;;5075894;28;20056;-70
2024/02/25 05:23:34;;;;;;;7.22;6.30;;;9.20;96.70;;;;;;5066625;28;20063;-70
2024/02/25 05:26:07;;;;;;;9.10;6.60;;;9.20;96.70;;;;;;5066003;28;20509;-70
2024/02/25 05:28:36;;;;;;;8.02;6.32;;;9.20;96.70;;;;;;5066015;28;20052;-70
2024/02/25 05:31:06;;;;;;;7.72;6.53;;;9.20;96.70;;;;;;5071363;28;20044;-70
2024/02/25 05:33:38;;;;;;;7.53;6.72;;;9.20;96.70;;;;;;5066313;28;20048;-70
2024/02/25 05:36:08;;;;;;;8.15;6.28;;;9.10;96.70;;;;;;5067940;28;20127;-71
2024/02/25 05:38:36;;;;;;;6.90;5.63;;;9.10;96.70;;;;;;5049504;28;20039;-71
2024/02/25 05:41:10;;;;;;;7.32;5.15;;;9.10;96.70;;;;;;5065804;28;20052;-71
2024/02/25 05:43:41;;;;;;;5.50;4.35;;;9.10;96.70;;;;;;5065558;28;20060;-70
2024/02/25 05:46:11;;;;;;;6.05;3.83;;;9.00;96.70;;;;;;5065700;28;20501;-70
2024/02/25 05:48:41;;;;;;;4.10;3.63;;;9.00;96.70;;;;;;5066026;28;20075;-70
2024/02/25 05:51:09;;;;;;;4.05;3.45;;;9.00;96.70;;;;;;5082380;28;20051;-71
2024/02/25 05:53:38;;;;;;;4.70;3.15;;;9.00;96.70;;;;;;5067703;28;20059;-70
2024/02/25 05:56:09;;;;;;;4.10;3.05;;;9.00;96.70;;;;;;5082651;28;20476;-70
2024/02/25 05:58:39;;;;;;;4.45;3.47;;;8.90;96.70;;;;;;5048924;28;20052;-71
2024/02/25 06:01:10;;;;;;;5.15;2.90;;;8.80;96.70;;;;;;5079037;28;20139;-70
2024/02/25 06:03:39;;;;;;;5.07;2.92;;;8.90;96.70;;;;;;5082619;28;20568;-71
2024/02/25 06:06:10;;;;;;;3.13;2.45;;;9.00;96.70;;;;;;5082381;28;20059;-71
2024/02/25 06:08:41;;;;;;;4.10;2.83;;;8.90;96.70;;;;;;5082656;28;20053;-70
2024/02/25 06:11:12;;;;;;;4.03;3.03;;;8.90;96.70;;;;;;5065429;28;20051;-71
2024/02/25 06:13:41;;;;;;;5.43;3.03;;;8.90;96.70;;;;;;5065647;28;20691;-70
2024/02/25 06:16:09;;;;;;;4.70;3.63;;;8.90;96.70;;;;;;5067130;28;20575;-71
2024/02/25 06:18:38;;;;;;;5.05;3.20;;;8.80;96.70;;;;;;5057695;28;20055;-71
2024/02/25 06:21:08;;;;;;;6.10;3.15;;;8.90;96.70;;;;;;5065275;28;20139;-70
2024/02/25 06:23:39;;;;;;;4.32;2.90;;;8.90;96.70;;;;;;5072412;28;20076;-71
2024/02/25 06:26:07;;;;;;;7.97;2.88;;;8.80;96.70;;;;;;5066757;28;20106;-71
2024/02/25 06:28:38;;;;;;;4.32;3.00;;;8.80;96.70;;;;;;5081435;28;20056;-71
2024/02/25 06:31:11;;;;;;;4.82;3.10;;;8.70;96.70;;;;;;5048051;28;20056;-71
2024/02/25 06:33:41;;;;;;;4.35;2.47;;;8.60;96.70;;;;;;5050414;28;20497;-70
2024/02/25 06:36:19;;;;;;;3.28;2.47;;;8.60;96.70;;;;;;5075506;28;20102;-71
2024/02/25 06:38:49;;;;;;;5.10;3.83;;;8.70;96.70;;;;;;5081568;28;20101;-71
2024/02/25 06:41:20;;;;;;;4.75;3.10;;;8.70;96.70;;;;;;5065522;28;20071;-71
2024/02/25 06:43:54;;;;;;;5.00;2.63;;;8.70;96.70;;;;;;5064825;28;20056;-71
2024/02/25 06:46:24;;;;;;;4.18;3.20;;;8.70;96.70;;;;;;5081104;28;20044;-71
2024/02/25 06:48:54;;;;;;;4.88;2.63;;;8.70;96.70;;;;;;5081696;28;20067;-71
2024/02/25 06:51:28;;;;;;;4.10;2.63;;;8.70;96.70;;;;;;5055977;28;20048;-71
2024/02/25 06:53:59;;;;;;;3.08;2.80;;;8.70;96.70;;;;;;5064577;28;20056;-71
2024/02/25 06:56:31;;;;;;;4.68;2.88;;;8.70;96.70;;;;;;5064289;28;20513;-71
2024/02/25 06:59:02;;;;;;;3.50;2.90;;;8.80;96.70;;;;;;5064478;28;20056;-70
2024/02/25 07:01:31;;;;;;;3.97;2.65;;;8.80;96.70;;;;;;5081288;28;20067;-71
2024/02/25 07:04:00;;;;;;;3.55;3.00;;;8.80;96.70;;;;;;5064237;28;20060;-71
2024/02/25 07:06:30;;;;;;;3.42;2.75;;;8.90;96.70;;;;;;5081089;28;20409;-71
2024/02/25 07:09:00;;;;;;;3.65;3.00;;;8.90;96.70;;;;;;5058271;28;20102;-70
2024/02/25 07:11:29;;;;;;;4.80;3.17;;;9.00;96.70;;;;;;5064675;28;20048;-70
2024/02/25 07:14:00;;;;;;;3.92;3.03;;;9.00;96.70;;;;;;5080971;28;20075;-71
2024/02/25 07:16:30;;;;;;;4.97;3.58;;;9.10;96.70;;;;;;5069882;28;20531;-71
2024/02/25 07:18:59;;;;;;;4.95;3.38;;;9.10;96.70;;;;;;5047969;28;20420;-71
2024/02/25 07:21:31;;;;;;;4.40;3.42;;;9.10;96.70;;;;;;5081345;28;20052;-71
2024/02/25 07:24:00;;;;;;;4.28;3.30;;;9.20;96.70;;;;;;5063729;28;20048;-71
2024/02/25 07:26:29;;;;;;;4.45;3.08;;;9.30;96.70;;;;;;5047011;28;20059;-71
2024/02/25 07:29:00;;;;;;;3.80;3.08;;;9.30;96.70;;;;;;5071025;28;20056;-71
2024/02/25 07:31:31;;;;;;;4.00;3.20;;;9.40;96.70;;;;;;5067811;28;20058;-71
2024/02/25 07:34:00;;;;;;;5.07;3.20;;;9.50;96.70;;;;;;5067637;28;20076;-71
2024/02/25 07:36:30;;;;;;;6.20;4.60;;;9.60;96.70;;;;;;5067471;28;20094;-71
2024/02/25 07:39:00;;;;;;;5.28;3.72;;;9.60;96.70;;;;;;5069345;28;20601;-71
2024/02/25 07:41:29;;;;;;;6.60;4.53;;;9.60;96.70;;;;;;5064742;28;20126;-71
2024/02/25 07:44:00;;;;;;;7.90;4.47;;;9.70;96.70;;;;;;5084269;28;20056;-71
2024/02/25 07:46:30;;;;;;;6.85;4.13;;;9.70;96.70;;;;;;5064964;28;20071;-71
2024/02/25 07:49:00;;;;;;;5.88;4.15;;;9.70;96.70;;;;;;5084771;28;20056;-71
2024/02/25 07:51:36;;;;;;;8.00;4.60;;;9.70;96.70;;;;;;5085026;28;20144;-71
2024/02/25 07:54:05;;;;;;;6.68;4.18;;;9.80;96.70;;;;;;5068135;28;20064;-71
2024/02/25 07:56:34;;;;;;;4.70;3.35;;;9.90;96.70;;;;;;5061041;28;20103;-71
2024/02/25 07:59:07;;;;;;;5.97;3.85;;;9.90;96.70;;;;;;5067722;28;20064;-71
2024/02/25 08:01:37;;;;;;;5.13;3.40;;;10.00;96.70;;;;;;5067405;28;20061;-71
2024/02/25 08:04:06;;;;;;;3.85;2.95;;;10.00;96.70;;;;;;5084357;28;20056;-71
2024/02/25 08:06:38;;;;;;;4.80;3.25;;;10.10;96.70;;;;;;5079969;28;20065;-70
2024/02/25 08:09:08;;;;;;;4.93;3.22;;;10.10;96.70;;;;;;5049619;28;20061;-71
2024/02/25 08:11:37;;;;;;;4.47;2.80;;;10.10;96.70;;;;;;5069121;28;20555;-71
2024/02/25 08:14:11;;;;;;;5.15;2.70;;;10.10;96.70;;;;;;5067423;28;20162;-71
2024/02/25 08:16:39;;;;;;;4.05;2.50;;;10.10;96.70;;;;;;5066860;28;20054;-71
2024/02/25 08:19:08;;;;;;;4.47;2.83;;;10.10;96.70;;;;;;5050681;28;20056;-71
2024/02/25 08:21:39;;;;;;;3.72;2.45;;;10.20;96.70;;;;;;5083215;28;20048;-71
2024/02/25 08:24:10;;;;;;;4.30;2.88;;;10.20;96.70;;;;;;5082930;28;20052;-71
2024/02/25 08:26:39;;;;;;;8.73;5.20;;;10.20;96.70;;;;;;5084078;28;20045;-71
2024/02/25 08:29:10;;;;;;;8.25;5.50;;;10.30;96.70;;;;;;5083699;28;20082;-70
2024/02/25 08:31:40;;;;;;;5.22;3.35;;;10.30;96.70;;;;;;5066695;28;20102;-70
2024/02/25 08:34:10;;;;;;;4.68;3.22;;;10.30;96.70;;;;;;5066779;28;20056;-71
2024/02/25 08:36:40;;;;;;;3.45;2.63;;;10.40;96.70;;;;;;5084162;28;20461;-70
2024/02/25 08:39:08;;;;;;;3.55;2.38;;;10.40;96.70;;;;;;5065427;28;20045;-71
2024/02/25 08:41:40;;;;;;;2.92;2.10;;;10.50;96.70;;;;;;5056287;28;20505;-71
2024/02/25 08:44:11;;;;;;;5.28;3.20;;;10.50;96.70;;;;;;5083252;28;20135;-71
2024/02/25 08:46:39;;;;;;;6.57;3.00;;;10.60;96.70;;;;;;5083508;28;20058;-70
2024/02/25 08:49:08;;;;;;;3.10;2.28;;;10.70;96.70;;;;;;5066212;28;20045;-70
2024/02/25 08:51:38;;;;;;;2.65;2.08;;;10.70;96.70;;;;;;5063571;28;20416;-70
2024/02/25 08:54:08;;;;;;;3.22;2.17;;;10.70;96.70;;;;;;5083176;28;20680;-70
2024/02/25 08:56:37;;;;;;;3.45;1.70;;;10.70;96.70;;;;;;5082704;28;20040;-70
2024/02/25 08:59:05;;;;;;;3.58;1.67;;;10.70;96.70;;;;;;5086434;28;20618;-71
2024/02/25 09:01:37;;;;;;;2.30;1.35;;;10.70;96.70;;;;;;5067640;28;20055;-70
2024/02/25 09:04:10;;;;;;;2.03;1.20;;;10.80;96.70;;;;;;5082733;28;20063;-70
2024/02/25 09:06:39;;;;;;;2.03;1.00;;;10.80;96.70;;;;;;5064174;28;20051;-72
2024/02/25 09:09:10;;;;;;;2.20;1.48;;;10.80;96.70;;;;;;5081621;28;20049;-70
2024/02/25 09:11:41;;;;;;;3.90;1.60;;;11.00;96.70;;;;;;5082828;28;20732;-69
2024/02/25 09:14:12;;;;;;;5.95;2.10;;;11.10;96.70;;;;;;5066540;28;20453;-69
2024/02/25 09:16:46;;;;;;;2.75;1.65;;;11.10;96.70;;;;;;5050434;28;20068;-70
2024/02/25 09:19:15;;;;;;;2.80;1.60;;;11.20;96.70;;;;;;5086576;28;20058;-70
2024/02/25 09:21:47;;;;;;;3.08;1.77;;;11.20;96.70;;;;;;5078338;28;20070;-70
2024/02/25 09:24:16;;;;;;;3.55;2.33;;;11.30;96.70;;;;;;5090702;28;20121;-70
2024/02/25 09:26:45;;;;;;;4.70;2.40;;;11.40;96.70;;;;;;5069944;28;20040;-70
2024/02/25 09:29:14;;;;;;;3.88;3.10;;;11.50;96.70;;;;;;5089487;28;20475;-70
2024/02/25 09:31:44;;;;;;;5.40;3.22;;;11.50;96.70;;;;;;5084962;28;20039;-68
2024/02/25 09:34:14;;;;;;;4.55;3.35;;;11.50;96.70;;;;;;5090476;28;20048;-68
2024/02/25 09:36:44;;;;;;;4.50;3.55;;;11.40;96.70;;;;;;5082171;28;20051;-68
2024/02/25 09:39:14;;;;;;;4.38;2.63;;;11.50;96.70;;;;;;5081566;28;20044;-67
2024/02/25 09:41:44;;;;;;;4.35;2.70;;;11.40;96.70;;;;;;5063157;28;20052;-67
2024/02/25 09:44:21;;;;;;;4.43;3.15;;;11.30;96.70;;;;;;5081806;28;20075;-68
2024/02/25 09:46:54;;;;;;;6.95;3.60;;;11.50;96.70;;;;;;5048000;28;20044;-67
2024/02/25 09:49:25;;;;;;;4.72;2.90;;;11.70;96.70;;;;;;5101895;27;20056;-68
2024/02/25 09:51:56;;;;;;;3.95;2.75;;;11.90;96.70;;;;;;5085694;28;20049;-68
2024/02/25 09:54:26;;;;;;;3.70;2.60;;;11.90;96.70;;;;;;5070293;28;20571;-67
2024/02/25 09:56:56;;;;;;;5.78;2.90;;;12.00;96.70;;;;;;5072379;28;20055;-67
2024/02/25 09:59:25;;;;;;;3.30;2.20;;;12.10;96.70;;;;;;5090830;28;20445;-67
2024/02/25 10:01:55;;;;;;;3.90;2.05;;;12.20;96.70;;;;;;5074102;28;20115;-67
2024/02/25 10:04:25;;;;;;;4.20;2.10;;;12.20;96.70;;;;;;5088146;28;20044;-68
2024/02/25 10:06:57;;;;;;;3.45;1.92;;;12.20;96.70;;;;;;5106939;27;20596;-68
2024/02/25 10:09:30;;;;;;;3.85;1.80;;;12.40;96.70;;;;;;5089510;28;20064;-69
2024/02/25 10:12:01;;;;;;;2.53;1.85;;;12.40;96.70;;;;;;5069495;28;20094;-69
2024/02/25 10:14:34;;;;;;;3.08;1.63;;;12.40;96.70;;;;;;5073232;28;20056;-70
2024/02/25 10:17:07;;;;;;;2.25;1.42;;;12.60;96.70;;;;;;5069271;28;20059;-70
2024/02/25 10:19:38;;;;;;;4.43;2.65;;;12.70;96.70;;;;;;5068626;28;20051;-68
2024/02/25 10:22:10;;;;;;;3.28;2.10;;;12.80;96.70;;;;;;5075524;28;20058;-68
2024/02/25 10:24:40;;;;;;;6.32;3.88;;;12.90;96.70;;;;;;5087377;28;20179;-68
2024/02/25 10:27:12;;;;;;;3.30;2.20;;;13.00;96.70;;;;;;5066072;28;20052;-68
2024/02/25 10:29:52;;;;;;;4.22;2.80;;;13.00;96.70;;;;;;5075828;28;20057;-68
2024/02/25 10:32:26;;;;;;;2.85;2.00;;;13.00;96.70;;;;;;5057787;28;20044;-68
2024/02/25 10:34:57;;;;;;;2.20;1.48;;;13.20;96.70;;;;;;5064696;28;20049;-67
2024/02/25 10:37:27;;;;;;;3.35;1.50;;;13.20;96.70;;;;;;5085808;28;20055;-68
2024/02/25 10:39:57;;;;;;;3.17;1.77;;;13.30;96.70;;;;;;5052972;28;20083;-69
2024/02/25 10:42:28;;;;;;;2.28;1.48;;;13.40;96.70;;;;;;5067161;28;20363;-69
2024/02/25 10:44:57;;;;;;;3.40;1.20;;;13.50;96.70;;;;;;5065834;28;20064;-70
2024/02/25 10:51:02;;;;;;;3.55;1.63;;;13.60;96.70;;;;;;5089697;23;20058;-69
2024/02/25 10:53:41;;;;;;;2.60;1.40;;;13.70;96.70;;;;;;4978461;28;20874;-70
2024/02/25 10:56:12;;;;;;;;;;;13.90;96.70;;;;;;4972656;28;20050;-69
2024/02/25 10:58:41;;;;;;;5.22;3.72;;;13.80;96.70;;;;;;4972686;28;19976;-69
2024/02/25 11:01:14;;;;;;;3.47;2.47;;;13.90;96.70;;;;;;4975732;28;20046;-69
2024/02/25 11:03:47;;;;;;;2.97;1.70;;;14.00;96.70;;;;;;4978688;28;20053;-71
2024/02/25 11:06:31;;;;;;;2.58;1.63;;;14.10;96.70;;;;;;4974913;28;20042;-70
2024/02/25 11:09:09;;;;;;;2.75;1.80;;;14.00;96.70;;;;;;4976121;28;20067;-70
2024/02/25 11:11:39;;;;;;;1.85;1.35;;;14.10;96.70;;;;;;4967837;28;20046;-71
2024/02/25 11:14:13;;;;;;;2.65;1.40;;;14.10;96.70;;;;;;4966810;28;20057;-71
2024/02/25 11:16:45;;;;;;;1.42;0.77;;;14.20;96.70;;;;;;4966921;28;20172;-71
2024/02/25 11:19:17;;;;;;;3.10;0.90;;;14.30;96.70;;;;;;4993146;28;20054;-69
2024/02/25 11:21:53;;;;;;;2.40;0.68;;;14.30;96.70;;;;;;4990903;28;20129;-70
2024/02/25 11:24:52;;;;;;;10.77;5.40;;;14.40;96.70;;;;;;4993096;28;20142;-70
2024/02/25 11:27:22;;;;;;;2.95;1.17;;;14.50;96.70;;;;;;4933958;28;20542;-69
2024/02/25 11:30:15;;;;;;;3.53;1.20;;;14.60;96.70;;;;;;4998380;28;20054;-69
2024/02/25 11:32:44;;;;;;;1.80;1.00;;;14.60;96.70;;;;;;4983220;28;20173;-70
2024/02/25 11:35:15;;;;;;;3.97;1.10;;;14.70;96.70;;;;;;4983412;28;20107;-70
2024/02/25 11:37:49;;;;;;;2.70;1.17;;;14.70;96.70;;;;;;4968330;28;20046;-69
2024/02/25 11:40:19;;;;;;;2.08;1.23;;;14.90;96.70;;;;;;4997223;28;20050;-69
2024/02/25 11:42:50;;;;;;;3.88;1.20;;;15.10;96.70;;;;;;4979109;28;20550;-69
2024/02/25 11:45:19;;;;;;;2.42;1.20;;;15.20;96.70;;;;;;4980349;28;20427;-69
2024/02/25 11:47:50;;;;;;;4.28;0.98;;;15.20;96.70;;;;;;4984069;28;20073;-70
2024/02/25 11:50:21;;;;;;;2.30;1.00;;;15.40;96.70;;;;;;4990334;28;20069;-69
2024/02/25 11:53:10;;;;;;;2.17;0.77;;;15.50;96.70;;;;;;4978015;28;20154;-69
2024/02/25 11:55:38;;;;;;;4.30;1.15;;;15.60;96.70;;;;;;4968054;28;20500;-69
2024/02/25 11:58:10;;;;;;;2.35;0.95;;;15.60;96.70;;;;;;4967112;28;20051;-69
2024/02/25 12:00:39;;;;;;;2.95;1.20;;;15.50;96.70;;;;;;4960205;28;20074;-69
2024/02/25 12:03:09;;;;;;;2.08;0.85;;;15.70;96.70;;;;;;4976841;28;20054;-69
2024/02/25 12:05:39;;;;;;;2.78;1.70;;;16.00;96.70;;;;;;4994942;28;20066;-69
2024/02/25 12:08:15;;;;;;;2.08;1.33;;;16.10;96.70;;;;;;4966290;28;20472;-69
2024/02/25 12:10:47;;;;;;;2.90;1.90;;;16.20;96.70;;;;;;4961274;28;20088;-69
2024/02/25 12:13:17;;;;;;;3.03;0.70;;;16.40;96.70;;;;;;5000050;28;20062;-70
2024/02/25 12:15:47;;;;;;;1.17;0.77;;;16.40;96.70;;;;;;4972884;28;20080;-69
2024/02/25 12:18:16;;;;;;;1.35;0.70;;;16.50;96.70;;;;;;4985843;28;20054;-69
2024/02/25 12:20:51;;;;;;;2.03;1.20;;;16.60;96.70;;;;;;4961522;28;20104;-70
2024/02/25 12:23:22;;;;;;;2.05;0.98;;;16.60;96.70;;;;;;4987608;28;20133;-70
2024/02/25 12:26:02;;;;;;;1.45;0.70;;;16.70;96.70;;;;;;4983372;28;20059;-70
2024/02/25 12:28:37;;;;;;;2.20;0.77;;;16.50;96.70;;;;;;4978969;28;20057;-69
2024/02/25 12:31:09;;;;;;;;;;;16.70;96.70;;;;;;4971802;28;20046;-70
2024/02/25 12:33:38;;;;;;;1.92;1.00;;;16.90;96.70;;;;;;4986596;28;19926;-70
2024/02/25 12:36:09;;;;;;;1.55;0.52;;;17.10;96.70;;;;;;4994912;28;20053;-70
2024/02/25 12:38:50;;;;;;;1.13;0.43;;;17.10;96.70;;;;;;4994538;28;20075;-70
2024/02/25 12:41:20;;;;;;;1.90;1.20;;;17.40;96.70;;;;;;4963637;28;20066;-69
2024/02/25 12:43:55;;;;;;;2.15;0.80;;;17.50;96.70;;;;;;4960107;28;20051;-69
2024/02/25 12:46:24;;;;;;;3.38;0.70;;;17.40;96.70;;;;;;4992806;28;20051;-70
2024/02/25 12:48:55;;;;;;;2.00;0.30;;;17.30;96.70;;;;;;4998541;28;20401;-70
2024/02/25 12:51:24;;;;;;;1.85;0.50;;;17.50;96.70;;;;;;4980126;28;20058;-69
2024/02/25 12:53:57;;;;;;;1.92;0.70;;;17.60;96.70;;;;;;4977398;28;20054;-70
2024/02/25 12:56:28;;;;;;;2.28;0.60;;;17.30;96.70;;;;;;4985760;28;20050;-69
2024/02/25 12:59:03;;;;;;;1.00;0.57;;;17.20;96.70;;;;;;4970516;28;20054;-69
2024/02/25 13:01:31;;;;;;;0.93;0.40;;;17.20;96.70;;;;;;4986113;28;20077;-70
2024/02/25 13:04:04;;;;;;;1.40;0.38;;;17.20;96.70;;;;;;4971034;28;20145;-69
2024/02/25 13:06:37;;;;;;;0.60;0.30;;;17.30;96.70;;;;;;4969940;28;20066;-69
2024/02/25 13:09:12;;;;;;;1.15;0.40;;;17.10;96.70;;;;;;5000292;28;20054;-69
2024/02/25 13:11:44;;;;;;;1.40;0.88;;;17.20;96.70;;;;;;4987097;28;20054;-70
2024/02/25 13:14:15;;;;;;;1.25;0.35;;;17.30;96.70;;;;;;4974606;28;20053;-70